Time;durP1;ratioP1;P1;durP2;ratioP2;P2;SDS_P1;SDS_P2;PMS_P1;PMS_P2;Temp;Humidity;BMP_temperature;BMP_pressure;BME280_temperature;BME280_humidity;BME280_pressure;Samples;Min_cycle;Max_cycle;Signal;HPM_P1;HPM_P2
2023/01/09 00:00:51;;;;;;;4.65;2.28;;;;;;;16.07;73.86;99334.69;6166569;23;20016;-87
2023/01/09 00:03:16;;;;;;;4.47;1.92;;;;;;;16.06;73.06;99337.31;6167220;23;20417;-89
2023/01/09 00:05:41;;;;;;;5.20;2.10;;;;;;;16.06;74.36;99338.16;6191788;23;20015;-89
2023/01/09 00:08:07;;;;;;;4.50;1.95;;;;;;;16.06;74.28;99332.13;6191935;23;20012;-88
2023/01/09 00:10:32;;;;;;;4.05;2.00;;;;;;;16.06;73.93;99327.78;6216806;23;20452;-89
2023/01/09 00:12:57;;;;;;;3.50;1.83;;;;;;;16.04;74.82;99330.41;6216641;23;20008;-88
2023/01/09 00:15:23;;;;;;;4.18;1.98;;;;;;;16.05;74.54;99336.47;6191856;23;20429;-90
2023/01/09 00:17:48;;;;;;;4.30;2.13;;;;;;;16.06;74.39;99329.53;6217833;23;20012;-89
2023/01/09 00:20:14;;;;;;;3.92;2.00;;;;;;;16.06;73.36;99322.59;6192034;23;20095;-90
2023/01/09 00:22:39;;;;;;;4.95;1.70;;;;;;;16.03;75.43;99336.50;6191658;23;20084;-90
2023/01/09 00:25:05;;;;;;;4.10;1.85;;;;;;;16.04;74.08;99330.41;6191333;23;20039;-89
2023/01/09 00:27:32;;;;;;;5.32;2.05;;;;;;;16.03;73.73;99333.91;6191579;23;20000;-89
2023/01/09 00:29:57;;;;;;;5.15;1.90;;;;;;;16.04;73.85;99338.19;6216612;23;20035;-90
2023/01/09 00:32:23;;;;;;;4.05;1.90;;;;;;;16.03;72.75;99338.25;6191682;23;20012;-90
2023/01/09 00:34:49;;;;;;;4.55;1.77;;;;;;;16.04;73.16;99340.78;6191652;23;20001;-90
2023/01/09 00:37:14;;;;;;;3.45;1.70;;;;;;;16.03;73.69;99335.66;6191249;23;20028;-89
2023/01/09 00:39:41;;;;;;;5.07;1.88;;;;;;;16.01;73.91;99337.44;6216481;23;20060;-89
2023/01/09 00:42:17;;;;;;;4.20;1.90;;;;;;;16.00;74.61;99328.81;6221207;23;20377;-90
2023/01/09 00:44:51;;;;;;;5.90;1.70;;;;;;;16.01;73.70;99325.31;6217986;23;19997;-88
2023/01/09 00:47:26;;;;;;;6.57;2.03;;;;;;;16.02;74.45;99315.78;6217971;23;19996;-90
2023/01/09 00:49:54;;;;;;;3.67;1.90;;;;;;;15.99;72.90;99315.88;6191229;23;20055;-89
2023/01/09 00:52:20;;;;;;;5.63;1.60;;;;;;;16.01;72.80;99314.09;6191097;23;20341;-90
2023/01/09 00:54:46;;;;;;;4.45;1.83;;;;;;;16.00;73.39;99312.38;6216655;23;20017;-89
2023/01/09 00:57:13;;;;;;;4.40;1.67;;;;;;;15.99;74.45;99314.13;6191042;23;20087;-89
2023/01/09 00:59:40;;;;;;;4.32;1.63;;;;;;;15.98;73.66;99311.56;6191239;23;20019;-90
2023/01/09 01:02:06;;;;;;;4.55;2.03;;;;;;;15.97;74.15;99317.66;6216022;23;20115;-90
2023/01/09 01:10:11;;;;;;;3.40;1.58;;;;;;;15.99;73.83;99315.88;6217407;23;19910;-90
2023/01/09 01:12:38;;;;;;;2.83;1.60;;;;;;;15.97;72.31;99315.91;6191151;23;19996;-91
2023/01/09 01:15:04;;;;;;;3.78;1.65;;;;;;;15.98;72.79;99317.63;6217699;23;20004;-89
2023/01/09 01:17:30;;;;;;;3.08;1.50;;;;;;;15.99;72.53;99310.69;6216058;23;20005;-90
2023/01/09 01:19:55;;;;;;;3.83;1.70;;;;;;;15.96;73.21;99322.00;6190953;23;20019;-89
2023/01/09 01:22:21;;;;;;;3.45;1.65;;;;;;;15.97;72.47;99315.91;6191071;23;20008;-89
2023/01/09 01:24:46;;;;;;;4.07;1.70;;;;;;;15.95;73.35;99304.72;6219363;23;20001;-90
2023/01/09 01:27:12;;;;;;;3.75;1.70;;;;;;;15.97;73.17;99309.88;6191064;23;20139;-89
2023/01/09 01:29:37;;;;;;;3.25;1.60;;;;;;;15.96;72.77;99313.34;6215901;23;20131;-87
2023/01/09 01:32:03;;;;;;;4.18;1.33;;;;;;;15.95;72.59;99324.63;6217907;23;20428;-91
2023/01/09 01:34:29;;;;;;;3.80;1.40;;;;;;;15.95;73.57;99335.84;6215083;23;20485;-77
2023/01/09 01:36:54;;;;;;;3.10;1.40;;;;;;;15.95;73.06;99332.41;6189097;23;20005;-77
2023/01/09 01:39:20;;;;;;;3.85;1.50;;;;;;;15.96;72.90;99337.56;6216723;23;20001;-76
2023/01/09 01:41:45;;;;;;;2.95;1.45;;;;;;;15.96;72.44;99336.69;6191217;23;20007;-76
2023/01/09 01:44:48;;;;;;;2.85;1.30;;;;;;;15.95;71.75;99332.41;6168392;23;20083;-90
2023/01/09 01:47:16;;;;;;;4.22;1.52;;;;;;;15.94;73.39;99336.75;6218057;23;20087;-90
2023/01/09 01:49:42;;;;;;;3.92;1.50;;;;;;;15.95;73.29;99345.38;6192766;23;20026;-90
2023/01/09 01:52:07;;;;;;;4.78;1.50;;;;;;;15.94;72.51;99357.50;6218060;23;20094;-89
2023/01/09 01:54:33;;;;;;;3.60;1.55;;;;;;;15.93;73.09;99360.13;6218393;23;20017;-89
2023/01/09 01:57:02;;;;;;;4.25;1.52;;;;;;;15.93;72.86;99358.38;6220333;23;20040;-91
2023/01/09 02:00:04;;;;;;;4.20;1.50;;;;;;;15.91;73.43;99359.31;6192433;23;20008;-89
2023/01/09 02:02:31;;;;;;;3.13;1.38;;;;;;;15.94;72.60;99347.13;6154177;23;20016;-90
2023/01/09 02:04:59;;;;;;;3.97;1.40;;;;;;;15.92;73.04;99351.50;6196119;23;20083;-91
2023/01/09 02:07:24;;;;;;;3.13;1.50;;;;;;;15.92;73.21;99348.91;6199899;23;20013;-90
2023/01/09 02:09:56;;;;;;;3.50;1.30;;;;;;;15.89;72.29;99346.38;6203597;23;20512;-76
2023/01/09 02:12:26;;;;;;;4.07;1.20;;;;;;;15.91;72.29;99346.34;6216605;23;20079;-75
2023/01/09 02:15:00;;;;;;;3.30;1.38;;;;;;;15.92;72.54;99351.50;6191567;23;20009;-75
2023/01/09 02:17:45;;;;;;;2.60;1.30;;;;;;;15.90;72.00;99350.69;6216526;23;20009;-76
2023/01/09 02:20:28;;;;;;;4.18;1.40;;;;;;;15.89;71.94;99351.56;6216177;23;20059;-75
2023/01/09 02:22:56;;;;;;;3.05;1.30;;;;;;;15.90;72.49;99340.31;6216262;23;20007;-75
2023/01/09 02:25:53;;;;;;;4.93;1.30;;;;;;;15.90;72.67;99348.09;6216442;23;20404;-75
2023/01/09 02:28:36;;;;;;;3.33;1.30;;;;;;;15.90;73.08;99349.84;6215958;23;20004;-77
2023/01/09 02:31:28;;;;;;;2.80;1.42;;;;;;;15.90;73.05;99355.88;6217774;23;20008;-76
2023/01/09 02:34:18;;;;;;;3.42;1.40;;;;;;;15.89;72.25;99356.75;6171430;23;20019;-78
2023/01/09 02:37:18;;;;;;;3.00;1.20;;;;;;;15.90;72.89;99355.88;6215839;23;20004;-76
2023/01/09 02:40:10;;;;;;;2.30;1.10;;;;;;;15.89;72.58;99351.56;6217380;23;20008;-78
2023/01/09 02:42:39;;;;;;;4.57;1.33;;;;;;;15.88;73.29;99349.03;6217390;23;19996;-76
2023/01/09 02:45:04;;;;;;;2.85;1.35;;;;;;;15.89;70.51;99351.56;6190716;23;20008;-77
2023/01/09 02:47:44;;;;;;;2.72;1.20;;;;;;;15.89;72.17;99345.53;6190781;23;20389;-76
2023/01/09 02:50:35;;;;;;;3.08;1.38;;;;;;;15.88;71.92;99344.69;6190728;23;20011;-77
2023/01/09 02:53:06;;;;;;;2.25;1.08;;;;;;;15.89;71.72;99338.59;6189559;23;20337;-76
2023/01/09 02:55:56;;;;;;;2.53;1.10;;;;;;;15.89;72.14;99345.53;6215784;23;20020;-76
2023/01/09 02:58:54;;;;;;;4.40;1.40;;;;;;;15.91;72.58;99348.94;6217478;23;20032;-76
2023/01/09 03:01:32;;;;;;;2.30;0.93;;;;;;;15.89;72.64;99333.41;6207768;23;20012;-76
2023/01/09 03:04:12;;;;;;;2.70;1.20;;;;;;;15.91;71.67;99339.41;6217225;23;20011;-75
2023/01/09 03:06:48;;;;;;;3.97;1.23;;;;;;;15.90;72.08;99340.31;6190585;23;20008;-75
2023/01/09 03:09:21;;;;;;;4.63;1.20;;;;;;;15.88;71.65;99346.44;6190631;23;20464;-75
2023/01/09 03:11:54;;;;;;;3.03;1.33;;;;;;;15.89;71.00;99338.59;6190620;23;20008;-76
2023/01/09 03:14:24;;;;;;;2.88;1.20;;;;;;;15.88;72.36;99339.50;6190629;23;20022;-76
2023/01/09 03:16:55;;;;;;;2.42;1.10;;;;;;;15.87;71.96;99324.81;6190511;23;20008;-77
2023/01/09 03:19:25;;;;;;;2.85;1.10;;;;;;;15.89;72.02;99327.38;6215624;23;20094;-76
2023/01/09 03:21:52;;;;;;;2.17;0.93;;;;;;;15.91;72.25;99333.38;6190704;23;20071;-91
2023/01/09 03:24:17;;;;;;;4.15;1.25;;;;;;;15.88;72.56;99341.25;6192680;23;20460;-90
2023/01/09 03:26:42;;;;;;;3.47;1.27;;;;;;;15.90;72.35;99336.88;6217569;23;20012;-91
2023/01/09 03:29:08;;;;;;;1.90;1.00;;;;;;;15.90;71.53;99337.72;6192281;23;20463;-91
2023/01/09 03:31:34;;;;;;;3.30;1.00;;;;;;;15.87;72.76;99330.00;6198489;23;20127;-91
2023/01/09 03:33:59;;;;;;;2.50;1.10;;;;;;;15.90;72.07;99335.13;6219093;23;20381;-91
2023/01/09 03:36:25;;;;;;;2.55;0.90;;;;;;;15.89;72.07;99329.97;6220908;23;20507;-89
2023/01/09 03:38:50;;;;;;;2.40;1.02;;;;;;;15.90;70.97;99329.94;6199306;23;20035;-91
2023/01/09 03:41:18;;;;;;;2.95;1.20;;;;;;;15.87;71.50;99330.00;6217101;23;20061;-91
2023/01/09 03:43:43;;;;;;;2.70;1.20;;;;;;;15.89;72.93;99322.19;6217016;23;20024;-92
2023/01/09 03:46:09;;;;;;;2.63;1.10;;;;;;;15.89;71.21;99328.22;6192574;23;20039;-90
2023/01/09 03:48:34;;;;;;;1.55;0.90;;;;;;;15.91;70.84;99323.84;6192622;23;20005;-92
2023/01/09 03:50:59;;;;;;;2.28;1.15;;;;;;;15.88;72.06;99336.06;6218757;23;20004;-90
2023/01/09 03:53:26;;;;;;;2.92;1.10;;;;;;;15.88;70.99;99329.13;6218331;23;20008;-91
2023/01/09 03:55:53;;;;;;;2.35;1.10;;;;;;;15.90;72.57;99331.69;6192508;23;20008;-91
2023/01/09 03:58:21;;;;;;;2.05;1.08;;;;;;;15.90;71.48;99337.72;6218535;23;20024;-91
2023/01/09 04:00:47;;;;;;;2.83;1.10;;;;;;;15.89;71.63;99346.38;6216622;23;20036;-91
2023/01/09 04:03:14;;;;;;;2.25;0.93;;;;;;;15.88;71.20;99336.91;6192425;23;20472;-91
2023/01/09 04:05:40;;;;;;;2.38;1.20;;;;;;;15.88;70.91;99344.69;6217363;23;20091;-90
2023/01/09 04:08:06;;;;;;;3.22;1.02;;;;;;;15.89;70.66;99348.13;6193486;23;20107;-91
2023/01/09 04:10:31;;;;;;;2.60;1.00;;;;;;;15.89;71.80;99343.78;6193605;23;20342;-89
2023/01/09 04:12:57;;;;;;;1.80;1.00;;;;;;;15.88;71.82;99349.88;6219701;23;20385;-89
2023/01/09 04:15:22;;;;;;;2.97;0.88;;;;;;;15.89;71.31;99345.53;6225341;23;20008;-92
2023/01/09 04:17:48;;;;;;;3.08;1.13;;;;;;;15.88;70.59;99346.44;6192073;23;20009;-91
2023/01/09 04:20:14;;;;;;;2.67;1.10;;;;;;;15.88;72.00;99349.88;6191838;23;20000;-90
2023/01/09 04:22:39;;;;;;;2.70;1.10;;;;;;;15.88;71.67;99351.63;6191731;23;20032;-91
2023/01/09 04:25:05;;;;;;;1.92;0.98;;;;;;;15.89;71.64;99346.38;6192056;23;20087;-91
2023/01/09 04:27:30;;;;;;;1.75;0.90;;;;;;;15.88;71.31;99344.69;6216991;23;20318;-92
2023/01/09 04:29:56;;;;;;;1.95;0.93;;;;;;;15.89;71.68;99329.97;6192020;23;20016;-92
2023/01/09 04:32:21;;;;;;;2.08;0.88;;;;;;;15.87;71.24;99329.16;6192622;23;20020;-90
2023/01/09 04:34:47;;;;;;;2.05;0.93;;;;;;;15.88;71.34;99328.28;6191714;23;20008;-91
2023/01/09 04:37:13;;;;;;;4.07;1.10;;;;;;;15.87;71.29;99330.00;6216679;23;20005;-92
2023/01/09 04:39:42;;;;;;;1.73;0.90;;;;;;;15.87;71.46;99324.81;6216513;23;20014;-92
2023/01/09 04:42:07;;;;;;;2.30;1.10;;;;;;;15.88;71.57;99317.91;6217248;23;20011;-91
2023/01/09 04:44:33;;;;;;;0.98;0.70;;;;;;;15.86;70.18;99319.69;6216890;23;20014;-91
2023/01/09 04:46:58;;;;;;;1.60;1.00;;;;;;;15.87;70.52;99318.78;6216681;23;20418;-91
2023/01/09 04:49:24;;;;;;;2.63;1.10;;;;;;;15.87;71.28;99321.38;6191662;23;20011;-91
2023/01/09 04:51:50;;;;;;;2.22;0.90;;;;;;;15.88;70.33;99326.53;6218276;23;20084;-92
2023/01/09 04:54:16;;;;;;;1.83;1.00;;;;;;;15.87;70.93;99317.03;6186550;23;20104;-90
2023/01/09 04:56:42;;;;;;;1.80;0.95;;;;;;;15.87;70.35;99316.19;6196516;23;20001;-89
2023/01/09 04:59:07;;;;;;;2.20;1.08;;;;;;;15.88;71.10;99318.75;6170194;23;20448;-90
2023/01/09 05:01:33;;;;;;;2.22;0.90;;;;;;;15.88;70.83;99312.72;6163211;23;20005;-91
2023/01/09 05:04:00;;;;;;;1.60;0.95;;;;;;;15.87;71.15;99311.00;6183694;23;20009;-89
2023/01/09 05:06:25;;;;;;;1.75;0.95;;;;;;;15.94;71.43;99317.72;6211445;23;20497;-90
2023/01/09 05:08:51;;;;;;;2.15;1.00;;;;;;;15.95;70.56;99311.66;6182664;23;19993;-88
2023/01/09 05:11:16;;;;;;;1.88;0.90;;;;;;;15.94;71.14;99315.13;6183264;23;20069;-90
2023/01/09 05:13:42;;;;;;;1.58;0.90;;;;;;;15.96;70.50;99319.41;6164474;23;20013;-90
2023/01/09 05:16:08;;;;;;;4.43;0.90;;;;;;;15.98;70.31;99315.03;6164511;23;20009;-91
2023/01/09 05:18:33;;;;;;;1.70;0.85;;;;;;;15.99;70.68;99315.88;6187980;23;20056;-91
2023/01/09 05:20:59;;;;;;;2.42;1.00;;;;;;;15.98;70.57;99316.75;6162215;23;20028;-91
2023/01/09 05:23:24;;;;;;;2.22;0.93;;;;;;;16.00;69.83;99317.56;6137146;23;20001;-92
2023/01/09 05:25:50;;;;;;;2.63;0.90;;;;;;;15.98;69.82;99316.75;6137333;23;20009;-92
2023/01/09 05:28:16;;;;;;;2.58;0.95;;;;;;;16.00;69.71;99320.16;6188097;23;20009;-92
2023/01/09 05:30:41;;;;;;;2.22;0.93;;;;;;;16.01;69.68;99317.53;6167865;23;20013;-91
2023/01/09 05:33:07;;;;;;;2.40;0.98;;;;;;;16.01;70.09;99316.69;6169854;23;20076;-91
2023/01/09 05:35:32;;;;;;;1.58;0.80;;;;;;;16.01;69.43;99320.13;6187972;23;20036;-91
2023/01/09 05:37:57;;;;;;;2.17;0.90;;;;;;;16.02;70.10;99316.63;6162080;23;20036;-90
2023/01/09 05:40:23;;;;;;;1.30;0.68;;;;;;;16.03;70.04;99322.69;6171149;23;20001;-90
2023/01/09 05:42:48;;;;;;;2.33;0.90;;;;;;;16.02;70.25;99318.38;6136552;23;20004;-90
2023/01/09 05:45:14;;;;;;;1.77;0.80;;;;;;;16.06;69.11;99322.59;6161629;23;20001;-91
2023/01/09 05:47:39;;;;;;;1.77;0.80;;;;;;;16.03;69.81;99322.69;6161397;23;20013;-90
2023/01/09 05:50:05;;;;;;;2.65;1.02;;;;;;;16.06;68.97;99319.16;6161549;23;20307;-91
2023/01/09 05:52:30;;;;;;;1.90;0.80;;;;;;;16.09;69.64;99324.25;6161602;23;20005;-89
2023/01/09 05:54:56;;;;;;;1.80;1.00;;;;;;;16.07;70.02;99328.63;6161864;23;20040;-91
2023/01/09 05:57:21;;;;;;;3.22;0.82;;;;;;;16.04;70.10;99330.41;6162073;23;20009;-91
2023/01/09 05:59:47;;;;;;;2.08;0.90;;;;;;;16.05;70.76;99328.69;6162065;23;20009;-90
2023/01/09 06:02:12;;;;;;;2.20;0.90;;;;;;;16.08;69.61;99328.59;6136553;23;20009;-91
2023/01/09 06:04:38;;;;;;;1.70;0.90;;;;;;;16.08;70.02;99327.75;6162513;23;20005;-89
2023/01/09 06:07:03;;;;;;;17.15;6.63;;;;;;;16.11;68.30;99331.09;6161309;23;20005;-89
2023/01/09 06:09:30;;;;;;;46.55;12.88;;;;;;;16.15;69.50;99318.88;6136751;23;20009;-90
2023/01/09 06:11:55;;;;;;;32.10;11.55;;;;;;;16.17;69.55;99324.91;6136994;23;20016;-90
2023/01/09 06:14:21;;;;;;;27.85;10.13;;;;;;;16.17;70.48;99315.34;6187591;23;20005;-86
2023/01/09 06:16:46;;;;;;;25.98;8.55;;;;;;;16.20;69.31;99327.38;6136421;23;20004;-91
2023/01/09 06:19:11;;;;;;;23.23;8.00;;;;;;;16.16;70.00;99318.00;6138033;23;20334;-89
2023/01/09 06:21:37;;;;;;;20.33;7.43;;;;;;;16.15;70.90;99313.69;6142839;23;20072;-83
2023/01/09 06:24:02;;;;;;;19.17;6.85;;;;;;;16.15;71.43;99316.28;6187498;23;20056;-90
2023/01/09 06:26:28;;;;;;;19.70;6.38;;;;;;;16.17;69.74;99319.69;6187786;23;20007;-86
2023/01/09 06:28:56;;;;;;;18.85;6.63;;;;;;;16.13;71.46;99310.28;6188382;23;20016;-85
2023/01/09 06:31:23;;;;;;;16.05;6.25;;;;;;;16.13;69.99;99311.13;6188468;23;20013;-88
2023/01/09 06:33:48;;;;;;;16.05;5.85;;;;;;;16.14;70.11;99315.44;6162519;23;20036;-93
2023/01/09 06:36:14;;;;;;;15.07;5.63;;;;;;;16.13;70.41;99311.13;6189264;23;20009;-89
2023/01/09 06:38:40;;;;;;;14.75;5.38;;;;;;;16.14;70.74;99318.03;6162281;23;20012;-87
2023/01/09 06:41:05;;;;;;;14.13;5.75;;;;;;;16.16;69.58;99315.41;6137613;23;20045;-84
2023/01/09 06:43:30;;;;;;;27.48;8.55;;;;;;;16.21;69.41;99313.53;6137326;23;20333;-82
2023/01/09 06:45:56;;;;;;;22.08;8.82;;;;;;;16.21;68.95;99314.38;6137471;23;20485;-80
2023/01/09 06:48:23;;;;;;;26.05;8.20;;;;;;;16.20;70.81;99310.09;6137476;23;20024;-88
2023/01/09 06:50:52;;;;;;;17.58;6.72;;;;;;;16.21;69.31;99324.75;6163186;23;20008;-85
2023/01/09 06:53:18;;;;;;;18.02;6.45;;;;;;;16.18;70.10;99322.25;6162456;23;20024;-90
2023/01/09 06:55:44;;;;;;;20.15;6.18;;;;;;;16.19;70.41;99326.53;6163461;23;20013;-89
2023/01/09 06:58:10;;;;;;;21.13;6.55;;;;;;;16.19;70.11;99321.34;6187902;23;20012;-85
2023/01/09 07:00:36;;;;;;;17.17;6.90;;;;;;;16.17;70.66;99322.28;6187108;23;20020;-88
2023/01/09 07:03:02;;;;;;;15.98;6.10;;;;;;;16.17;69.26;99320.53;6162606;23;20005;-90
2023/01/09 07:05:27;;;;;;;14.02;5.90;;;;;;;16.18;70.20;99324.88;6192457;23;20001;-86
2023/01/09 07:07:53;;;;;;;14.55;5.95;;;;;;;16.15;70.20;99314.53;6162328;23;20009;-86
2023/01/09 07:10:18;;;;;;;14.48;5.60;;;;;;;16.19;69.62;99320.50;6162229;23;20004;-85
2023/01/09 07:12:43;;;;;;;17.92;6.13;;;;;;;16.17;70.16;99317.09;6186968;23;20005;-86
2023/01/09 07:15:09;;;;;;;12.60;5.25;;;;;;;16.17;69.22;99323.13;6161739;23;20009;-82
2023/01/09 07:17:35;;;;;;;13.27;5.78;;;;;;;16.16;70.27;99326.66;6137102;23;20512;-85
2023/01/09 07:20:00;;;;;;;13.35;4.95;;;;;;;16.16;70.33;99331.84;6186189;23;20087;-86
2023/01/09 07:22:26;;;;;;;12.95;5.32;;;;;;;16.18;69.65;99329.22;6186113;23;20005;-86
2023/01/09 07:24:51;;;;;;;11.88;4.90;;;;;;;16.21;69.25;99332.56;6188327;23;20005;-87
2023/01/09 07:27:17;;;;;;;12.20;5.13;;;;;;;16.22;69.27;99334.25;6161529;23;20013;-86
2023/01/09 07:29:42;;;;;;;14.30;4.85;;;;;;;16.22;69.81;99342.06;6188061;23;20338;-85
2023/01/09 07:32:08;;;;;;;11.00;5.22;;;;;;;16.20;70.24;99340.38;6136824;23;20081;-86
2023/01/09 07:34:33;;;;;;;12.60;4.60;;;;;;;16.21;69.79;99345.53;6161702;23;20005;-83
2023/01/09 07:36:59;;;;;;;11.95;5.03;;;;;;;16.20;69.69;99342.97;6187948;23;20005;-88
2023/01/09 07:39:26;;;;;;;10.60;4.40;;;;;;;16.23;70.69;99345.50;6136830;23;20009;-81
2023/01/09 07:41:51;;;;;;;10.85;4.40;;;;;;;16.21;71.27;99352.47;6186078;23;20326;-87
2023/01/09 07:44:16;;;;;;;9.93;4.60;;;;;;;16.21;69.59;99352.47;6161714;23;20043;-84
2023/01/09 07:46:42;;;;;;;9.63;4.28;;;;;;;16.21;69.69;99363.69;6166678;23;20005;-81
2023/01/09 07:49:07;;;;;;;11.50;4.68;;;;;;;16.21;68.99;99362.84;6184887;23;19993;-85
2023/01/09 07:51:33;;;;;;;9.50;4.10;;;;;;;16.24;69.97;99368.81;6159176;23;20434;-86
2023/01/09 07:53:58;;;;;;;9.25;4.07;;;;;;;16.20;69.01;99377.56;6171763;23;20027;-85
2023/01/09 07:56:24;;;;;;;7.45;3.63;;;;;;;16.21;70.20;99378.44;6196956;23;20012;-86
2023/01/09 07:58:49;;;;;;;9.00;3.90;;;;;;;16.21;69.82;99383.63;6195182;23;20012;-88
2023/01/09 08:01:15;;;;;;;8.88;3.78;;;;;;;16.21;69.78;99392.25;6196054;23;20000;-86
2023/01/09 08:03:40;;;;;;;8.80;4.18;;;;;;;16.21;69.25;99392.25;6192230;23;20032;-83
2023/01/09 08:06:06;;;;;;;9.85;3.60;;;;;;;16.24;69.75;99405.16;6190821;23;20437;-82
2023/01/09 08:08:31;;;;;;;10.57;3.67;;;;;;;16.22;69.51;99416.44;6190354;23;20180;-85
2023/01/09 08:10:56;;;;;;;7.55;3.70;;;;;;;16.22;70.12;99422.50;6190885;23;20013;-85
2023/01/09 08:13:22;;;;;;;9.77;3.67;;;;;;;16.25;69.84;99429.38;6190823;23;20445;-83
2023/01/09 08:15:47;;;;;;;6.80;3.72;;;;;;;16.23;70.10;99432.00;6190741;23;20008;-84
2023/01/09 08:18:13;;;;;;;7.38;3.35;;;;;;;16.23;70.31;99431.16;6215702;23;20043;-84
2023/01/09 08:20:38;;;;;;;6.50;3.17;;;;;;;16.24;70.56;99444.09;6217280;23;20040;-85
2023/01/09 08:23:03;;;;;;;9.68;3.72;;;;;;;16.25;70.05;99445.78;6190307;23;20004;-85
2023/01/09 08:25:29;;;;;;;6.53;3.25;;;;;;;16.26;69.81;99451.81;6190805;23;20328;-84
2023/01/09 08:27:54;;;;;;;6.90;2.88;;;;;;;16.28;69.40;99457.81;6190987;23;20036;-85
2023/01/09 08:30:20;;;;;;;5.93;3.05;;;;;;;16.27;70.35;99463.09;6220020;23;20040;-85
2023/01/09 08:32:53;;;;;;;5.70;2.92;;;;;;;16.29;69.43;99471.66;6215985;23;20008;-83
2023/01/09 08:35:19;;;;;;;5.15;2.78;;;;;;;16.28;69.89;99488.13;6190853;23;20004;-85
2023/01/09 08:37:48;;;;;;;5.50;2.70;;;;;;;16.27;69.89;99481.25;6165842;23;20009;-84
2023/01/09 08:40:15;;;;;;;6.53;2.97;;;;;;;16.27;69.05;99487.28;6217292;23;20333;-87
2023/01/09 08:48:08;;;;;;;7.28;2.70;;;;;;;16.28;69.11;99511.50;6194935;23;20069;-84
2023/01/09 08:50:34;;;;;;;5.53;2.78;;;;;;;16.30;69.05;99522.69;6190759;23;20413;-86
2023/01/09 08:52:59;;;;;;;5.05;2.30;;;;;;;16.29;70.23;99531.34;6190502;23;20013;-84
2023/01/09 08:55:24;;;;;;;4.85;2.75;;;;;;;16.29;70.14;99532.22;6215423;23;20070;-88
2023/01/09 08:57:51;;;;;;;5.05;2.60;;;;;;;16.29;68.95;99531.34;6190696;23;20012;-85
2023/01/09 09:00:18;;;;;;;5.28;2.70;;;;;;;16.29;69.20;99537.41;6215885;23;20464;-86
2023/01/09 09:02:43;;;;;;;5.45;2.70;;;;;;;16.33;69.25;99533.88;6215466;23;20376;-86
2023/01/09 09:05:09;;;;;;;4.18;2.30;;;;;;;16.34;68.81;99529.50;6190685;23;20015;-83
2023/01/09 09:07:35;;;;;;;4.80;2.38;;;;;;;16.33;69.37;99540.78;6165421;23;20460;-86
2023/01/09 09:10:00;;;;;;;4.65;2.22;;;;;;;16.35;69.19;99547.66;6216930;23;20040;-84
2023/01/09 09:12:27;;;;;;;5.57;2.40;;;;;;;16.35;69.09;99546.78;6219005;23;20005;-83
2023/01/09 09:17:53;;;;;;;4.00;2.28;;;;;;;16.35;68.86;99562.38;6184195;23;20013;-87
2023/01/09 09:20:19;;;;;;;4.97;2.60;;;;;;;16.33;68.88;99559.81;6217124;23;20031;-87
2023/01/09 09:22:46;;;;;;;4.53;2.28;;;;;;;16.34;68.67;99576.25;6215211;23;20005;-87
2023/01/09 09:25:12;;;;;;;6.50;2.38;;;;;;;16.35;68.46;99575.34;6215777;23;20369;-87
2023/01/09 09:27:37;;;;;;;3.63;2.10;;;;;;;16.36;68.57;99587.44;6216084;23;20009;-85
2023/01/09 09:30:03;;;;;;;3.20;2.00;;;;;;;16.36;68.51;99592.66;6215761;23;20012;-87
2023/01/09 09:32:30;;;;;;;3.83;2.10;;;;;;;16.37;68.23;99594.34;6215879;23;20094;-86
2023/01/09 09:34:56;;;;;;;3.70;2.13;;;;;;;16.36;69.42;99593.50;6190484;23;20499;-86
2023/01/09 09:37:21;;;;;;;3.95;1.83;;;;;;;16.39;69.41;99601.19;6190858;23;20004;-86
2023/01/09 09:39:47;;;;;;;2.92;1.90;;;;;;;16.41;69.70;99608.94;6215834;23;20011;-83
2023/01/09 09:45:45;;;;;;;4.88;2.10;;;;;;;16.47;67.59;99626.13;6217476;23;20078;-85
2023/01/09 09:48:34;;;;;;;3.63;1.80;;;;;;;16.47;67.80;99633.94;6215565;23;20331;-84
2023/01/09 09:51:17;;;;;;;4.15;1.90;;;;;;;16.48;67.58;99633.88;6215722;23;20030;-76
2023/01/09 09:54:04;;;;;;;3.70;1.80;;;;;;;16.49;67.84;99648.56;6215728;23;20009;-77
2023/01/09 09:56:35;;;;;;;3.55;1.92;;;;;;;16.48;67.97;99654.66;6214499;23;20047;-75
2023/01/09 09:59:05;;;;;;;3.55;1.70;;;;;;;16.52;67.90;99660.63;6190006;23;20070;-76
2023/01/09 10:01:41;;;;;;;3.05;1.80;;;;;;;16.51;67.44;99658.94;6191451;23;20005;-75
2023/01/09 10:04:14;;;;;;;4.57;1.90;;;;;;;16.49;68.75;99669.34;6217760;23;20039;-76
2023/01/09 10:06:46;;;;;;;4.20;1.85;;;;;;;16.51;67.80;99670.16;6217660;23;20011;-76
2023/01/09 10:09:23;;;;;;;2.85;1.58;;;;;;;16.50;68.26;99678.00;6191174;23;19997;-75
2023/01/09 10:12:00;;;;;;;4.07;1.65;;;;;;;16.48;68.35;99683.22;6217722;23;20005;-76
2023/01/09 10:14:26;;;;;;;3.67;1.65;;;;;;;16.49;68.52;99697.91;6217744;23;20004;-75
2023/01/09 10:17:13;;;;;;;4.38;1.80;;;;;;;16.48;68.08;99700.53;6216740;23;20313;-77
2023/01/09 10:20:09;;;;;;;3.28;1.60;;;;;;;16.50;67.20;99701.38;6217577;23;20031;-76
2023/01/09 10:23:05;;;;;;;4.00;1.70;;;;;;;16.50;67.84;99709.16;6216060;23;20329;-76
2023/01/09 10:25:44;;;;;;;3.00;1.65;;;;;;;16.52;67.88;99715.16;6216082;23;20040;-74
2023/01/09 10:28:31;;;;;;;4.00;1.60;;;;;;;16.55;67.47;99723.75;6217951;23;20003;-74
2023/01/09 10:31:08;;;;;;;2.90;1.50;;;;;;;16.55;67.41;99720.28;6218201;23;20429;-74
2023/01/09 10:34:05;;;;;;;3.00;1.52;;;;;;;16.55;67.64;99728.94;6217887;23;20393;-75
2023/01/09 10:36:36;;;;;;;5.43;1.50;;;;;;;16.60;67.38;99734.88;6183463;23;20062;-78
2023/01/09 10:39:08;;;;;;;22.98;7.85;;;;;;;16.61;68.01;99741.78;6216140;23;20011;-78
2023/01/09 10:41:40;;;;;;;21.90;8.02;;;;;;;16.63;68.10;99750.38;6191028;23;20059;-76
2023/01/09 10:44:17;;;;;;;16.83;6.93;;;;;;;16.63;67.65;99755.56;6190841;23;20008;-79
2023/01/09 10:46:48;;;;;;;16.65;6.47;;;;;;;16.64;67.57;99746.91;6217570;23;20039;-78
2023/01/09 10:49:16;;;;;;;10.93;5.10;;;;;;;16.64;67.21;99757.31;6190780;23;20000;-79
2023/01/09 10:51:50;;;;;;;14.30;4.95;;;;;;;16.64;67.81;99764.25;6165873;23;20004;-78
2023/01/09 10:54:22;;;;;;;11.23;4.70;;;;;;;16.61;67.80;99769.50;6185666;23;20064;-77
2023/01/09 10:57:10;;;;;;;12.05;4.38;;;;;;;16.61;68.58;99769.50;6160928;23;20001;-78
2023/01/09 10:59:39;;;;;;;8.18;3.90;;;;;;;16.62;67.45;99779.84;6161326;23;20032;-79
2023/01/09 11:02:12;;;;;;;12.93;4.53;;;;;;;16.64;67.24;99777.22;6161586;23;20012;-79
2023/01/09 11:04:39;;;;;;;8.77;3.55;;;;;;;16.66;67.20;99783.25;6160810;23;20020;-77
2023/01/09 11:07:14;;;;;;;9.25;3.83;;;;;;;16.63;67.12;99780.69;6160838;23;20429;-78
2023/01/09 11:09:57;;;;;;;10.20;3.90;;;;;;;16.62;67.96;99785.06;6187058;23;20005;-77
2023/01/09 11:12:34;;;;;;;8.32;3.40;;;;;;;16.60;68.21;99785.97;6160578;23;20059;-79
2023/01/09 11:15:28;;;;;;;7.95;3.38;;;;;;;16.62;67.84;99785.06;6187087;23;20009;-77
2023/01/09 11:18:15;;;;;;;7.93;3.45;;;;;;;16.58;68.79;99793.78;6130024;23;20430;-79
2023/01/09 11:20:40;;;;;;;8.38;3.58;;;;;;;16.61;68.16;99795.47;6161154;23;20016;-78
2023/01/09 11:23:23;;;;;;;6.90;3.00;;;;;;;16.60;68.00;99799.81;6136120;23;20005;-77
2023/01/09 11:25:53;;;;;;;7.60;3.75;;;;;;;16.59;67.86;99800.72;6160708;23;20429;-77
2023/01/09 11:28:18;;;;;;;7.95;3.28;;;;;;;16.57;68.49;99804.22;6187160;23;20016;-83
2023/01/09 11:30:58;;;;;;;7.47;3.25;;;;;;;16.56;68.77;99803.34;6136766;23;20365;-85
2023/01/09 11:33:30;;;;;;;7.50;2.90;;;;;;;16.56;68.25;99812.91;6161081;23;20012;-86
2023/01/09 11:36:01;;;;;;;9.07;3.63;;;;;;;16.57;67.13;99817.19;6187337;23;20027;-86
2023/01/09 11:38:29;;;;;;;7.68;3.53;;;;;;;16.55;68.33;99816.38;6187186;23;20047;-86
2023/01/09 11:40:58;;;;;;;7.55;2.95;;;;;;;16.55;67.73;99817.25;6161079;23;20009;-87
2023/01/09 11:43:31;;;;;;;8.55;3.30;;;;;;;16.54;68.05;99823.31;6161414;23;20008;-86
2023/01/09 11:45:59;;;;;;;7.97;3.53;;;;;;;16.52;67.66;99832.88;6187748;23;20493;-86
2023/01/09 11:48:57;;;;;;;8.23;3.40;;;;;;;16.53;67.94;99831.16;6185764;23;20009;-85
2023/01/09 11:51:42;;;;;;;8.27;3.17;;;;;;;16.52;68.02;99832.03;6107047;23;20005;-87
2023/01/09 11:54:34;;;;;;;7.13;3.13;;;;;;;16.55;67.47;99839.75;6160778;23;20020;-87
2023/01/09 11:57:00;;;;;;;7.95;2.97;;;;;;;16.52;68.22;99838.06;6187386;23;20437;-87
2023/01/09 11:59:28;;;;;;;7.82;3.00;;;;;;;16.52;68.43;99843.25;6136384;23;20048;-87